Zwevegem, Belgium
Current Conditions -  °F | °C
As of 3:00 PM on Wednesday 28 Jan 2015 (Local Time) from LFQQ Reporting Station
Drizzle Drizzle  
Wind Chill: 35°   Ceiling: 700
Heat Index: 45°   Visibility: 4mi
Dew Point: 45°   Wind: 25mph
Humidity: 100%   Direction: 200°SSW
Pressure: 29.53"   Gusts: NA
Location:  50.81°N, 3.34°E
Report Text: LFQQ 281400Z 20022KT 7000 -DZ OVC007 07/07 Q1000 TEMPO20020G35KT 4000
Loading
Personal Weather Stations






























Interactive Weather Map New forecast layout! Learn more

10-Day Weather Forecast

Advertisements
Track Severe Weather on mobile